createdAt,value
2023-05-22T00:01:43.330Z,100692.22
2023-05-22T00:04:30.189Z,100672.91
2023-05-22T00:07:16.030Z,100634.81
2023-05-22T00:10:02.221Z,100678.44
2023-05-22T00:12:47.743Z,100673.09
2023-05-22T00:15:34.014Z,100678.44
2023-05-22T00:18:19.609Z,100691.94
2023-05-22T00:21:05.337Z,100688.03
2023-05-22T00:23:51.010Z,100657.25
2023-05-22T00:26:37.272Z,100637.94
2023-05-22T00:29:23.867Z,100645.03
2023-05-22T00:32:10.147Z,100686.88
2023-05-22T00:34:55.905Z,100658.03
2023-05-22T00:37:41.971Z,100680.50
2023-05-22T00:40:27.449Z,100673.69
2023-05-22T00:43:13.401Z,100660.53
2023-05-22T00:45:59.126Z,100680.25
2023-05-22T00:48:46.342Z,100670.81
2023-05-22T00:51:32.228Z,100668.03
2023-05-22T00:54:18.084Z,100675.47
2023-05-22T00:57:04.838Z,100674.53
2023-05-22T00:59:51.263Z,100673.78
2023-05-22T01:02:38.202Z,100674.78
2023-05-22T01:05:25.639Z,100673.84
2023-05-22T01:08:12.094Z,100670.44
2023-05-22T01:11:03.603Z,100678.06
2023-05-22T01:13:57.146Z,100655.66
2023-05-22T01:16:54.794Z,100674.16
2023-05-22T01:20:01.635Z,100664.63
2023-05-22T01:23:03.747Z,100666.69
2023-05-22T01:26:08.037Z,100680.78
2023-05-22T01:29:04.820Z,100683.59
2023-05-22T01:31:51.569Z,100660.72
2023-05-22T01:34:38.567Z,100642.56
2023-05-22T01:37:24.968Z,100668.66
2023-05-22T01:40:12.340Z,100667.19
2023-05-22T01:42:58.572Z,100629.09
2023-05-22T01:45:44.821Z,100671.09
2023-05-22T01:48:30.868Z,100644.53
2023-05-22T01:51:54.103Z,100667.38
2023-05-22T01:54:50.415Z,100655.66
2023-05-22T01:58:27.397Z,100676.25
2023-05-22T02:01:14.499Z,100670.28
2023-05-22T02:04:01.761Z,100663.13
2023-05-22T02:06:47.997Z,100671.28
2023-05-22T02:09:35.114Z,100665.94
2023-05-22T02:12:21.667Z,100620.06
2023-05-22T02:15:08.616Z,100633.72
2023-05-22T02:17:54.512Z,100657.56
2023-05-22T02:20:41.376Z,100649.81
2023-05-22T02:23:29.753Z,100663.25
2023-05-22T02:26:15.927Z,100665.38
2023-05-22T02:29:01.619Z,100653.84
2023-05-22T02:31:47.586Z,100645.91
2023-05-22T02:34:34.131Z,100640.56
2023-05-22T02:37:20.842Z,100662.44
2023-05-22T02:40:07.112Z,100656.78
2023-05-22T02:42:53.295Z,100652.56
2023-05-22T02:45:39.586Z,100637.78
2023-05-22T02:48:25.614Z,100643.44
2023-05-22T02:51:11.938Z,100641.69
2023-05-22T02:53:58.509Z,100652.06
2023-05-22T02:56:44.331Z,100644.94
2023-05-22T02:59:30.128Z,100644.25
2023-05-22T03:02:16.588Z,100644.56
2023-05-22T03:05:02.968Z,100647.28
2023-05-22T03:07:49.189Z,100656.34
2023-05-22T03:10:34.810Z,100641.16
2023-05-22T03:13:20.602Z,100638.06
2023-05-22T03:16:07.035Z,100634.03
2023-05-22T03:19:11.476Z,100614.59
2023-05-22T03:21:58.160Z,100636.44
2023-05-22T03:24:44.221Z,100588.94
2023-05-22T03:27:30.202Z,100620.53
2023-05-22T03:30:16.366Z,100621.50
2023-05-22T03:33:11.741Z,100636.84
2023-05-22T03:35:58.864Z,100631.03
2023-05-22T03:38:45.332Z,100624.25
2023-05-22T03:41:31.332Z,100647.81
2023-05-22T03:44:17.860Z,100638.25
2023-05-22T03:47:03.489Z,100641.81
2023-05-22T03:49:50.464Z,100619.28
2023-05-22T03:52:36.298Z,100642.44
2023-05-22T03:55:23.006Z,100628.84
2023-05-22T03:58:08.669Z,100650.09
2023-05-22T04:01:01.060Z,100607.72
2023-05-22T04:03:47.480Z,100638.16
2023-05-22T04:06:34.258Z,100644.59
2023-05-22T04:09:19.860Z,100656.63
2023-05-22T04:12:07.163Z,100646.56
2023-05-22T04:14:52.880Z,100650.38
2023-05-22T04:17:40.385Z,100654.75
2023-05-22T04:20:26.916Z,100651.56
2023-05-22T04:23:13.407Z,100646.25
2023-05-22T04:26:02.332Z,100652.56
2023-05-22T04:28:48.350Z,100657.16
2023-05-22T04:31:34.424Z,100596.63
2023-05-22T04:34:21.865Z,100633.56
2023-05-22T04:37:08.238Z,100623.91
2023-05-22T04:39:58.289Z,100651.44
2023-05-22T04:42:44.703Z,100652.94
2023-05-22T04:45:30.962Z,100638.63
2023-05-22T04:48:17.946Z,100642.81
2023-05-22T04:51:04.730Z,100633.56
2023-05-22T04:53:51.985Z,100637.13
2023-05-22T04:56:41.173Z,100641.88
2023-05-22T04:59:27.163Z,100647.34
2023-05-22T05:02:12.897Z,100642.94
2023-05-22T05:04:58.623Z,100629.75
2023-05-22T05:07:44.627Z,100640.00
2023-05-22T05:10:30.748Z,100584.00
2023-05-22T05:13:16.714Z,100626.13
2023-05-22T05:16:04.325Z,100591.34
2023-05-22T05:18:51.888Z,100605.22
2023-05-22T05:21:38.974Z,100623.84
2023-05-22T05:24:25.091Z,100636.31
2023-05-22T05:27:11.400Z,100611.91
2023-05-22T05:29:57.775Z,100638.72
2023-05-22T05:32:49.056Z,100620.41
2023-05-22T05:35:45.877Z,100634.59
2023-05-22T05:38:32.931Z,100640.44
2023-05-22T05:41:19.180Z,100641.03
2023-05-22T05:44:09.049Z,100644.34
2023-05-22T05:46:54.957Z,100636.97
2023-05-22T05:49:40.790Z,100638.06
2023-05-22T05:52:32.542Z,100637.69
2023-05-22T05:55:20.493Z,100645.47
2023-05-22T05:58:07.855Z,100647.22
2023-05-22T06:01:00.917Z,100636.44
2023-05-22T06:03:47.216Z,100593.72
2023-05-22T06:06:39.549Z,100632.53
2023-05-22T06:09:34.405Z,100637.31
2023-05-22T06:12:29.021Z,100640.94
2023-05-22T06:15:14.779Z,100623.59
2023-05-22T06:18:02.583Z,100639.25
2023-05-22T06:20:48.659Z,100623.13
2023-05-22T06:23:34.103Z,100642.34
2023-05-22T06:26:20.490Z,100620.06
2023-05-22T06:29:07.264Z,100607.25
2023-05-22T06:31:55.212Z,100633.91
2023-05-22T06:34:41.144Z,100636.31
2023-05-22T06:37:28.007Z,100625.69
2023-05-22T06:40:14.578Z,100608.13
2023-05-22T06:43:08.359Z,100630.84
2023-05-22T06:46:07.067Z,100634.03
2023-05-22T06:49:10.212Z,100616.41
2023-05-22T06:52:05.122Z,100627.13
2023-05-22T06:54:51.584Z,100644.09
2023-05-22T06:57:37.634Z,100638.19
2023-05-22T07:00:24.239Z,100633.56
2023-05-22T07:03:27.946Z,100628.69
2023-05-22T07:06:43.193Z,100628.88
2023-05-22T07:09:29.422Z,100607.19
2023-05-22T07:12:15.477Z,100626.13
2023-05-22T07:15:01.769Z,100611.91
2023-05-22T07:17:50.390Z,100631.88
2023-05-22T07:20:37.895Z,100610.09
2023-05-22T07:23:34.158Z,100628.69
2023-05-22T07:26:20.071Z,100630.38
2023-05-22T07:29:14.542Z,100634.06
2023-05-22T07:32:00.788Z,100638.44
2023-05-22T07:34:48.112Z,100631.81
2023-05-22T07:37:33.728Z,100628.72
2023-05-22T07:40:20.094Z,100638.34
2023-05-22T07:43:06.744Z,100632.34
2023-05-22T07:45:54.306Z,100611.09
2023-05-22T07:48:43.872Z,100634.88
2023-05-22T07:51:30.085Z,100634.53
2023-05-22T07:54:16.308Z,100628.22
2023-05-22T07:57:04.708Z,100636.38
2023-05-22T07:59:55.725Z,100626.41
2023-05-22T08:02:41.992Z,100633.22
2023-05-22T08:05:28.036Z,100622.03
2023-05-22T08:08:14.286Z,100618.88
2023-05-22T08:11:04.288Z,100623.72
2023-05-22T08:13:50.561Z,100616.47
2023-05-22T08:16:36.411Z,100625.22
2023-05-22T08:19:22.915Z,100626.84
2023-05-22T08:22:08.991Z,100617.63
2023-05-22T08:24:54.818Z,100619.59
2023-05-22T08:27:40.413Z,100616.41
2023-05-22T08:30:26.125Z,100619.56
2023-05-22T08:33:12.335Z,100595.47
2023-05-22T08:35:58.552Z,100620.03
2023-05-22T08:38:44.128Z,100589.16
2023-05-22T08:41:30.393Z,100614.88
2023-05-22T08:44:16.819Z,100620.34
2023-05-22T08:47:09.867Z,100606.31
2023-05-22T08:49:58.157Z,100598.94
2023-05-22T08:52:51.137Z,100606.38
2023-05-22T08:55:36.991Z,100605.06
2023-05-22T08:58:23.305Z,100581.94
2023-05-22T09:01:09.151Z,100598.41
2023-05-22T09:04:00.461Z,100599.63
2023-05-22T09:06:49.740Z,100591.34
2023-05-22T09:09:39.451Z,100585.06
2023-05-22T09:12:27.151Z,100578.31
2023-05-22T09:15:13.886Z,100576.28
2023-05-22T09:18:00.413Z,100575.16
2023-05-22T09:20:46.105Z,100586.03
2023-05-22T09:23:32.142Z,100574.00
2023-05-22T09:26:17.755Z,100563.63
2023-05-22T09:29:05.309Z,100563.69
2023-05-22T09:31:51.841Z,100563.34
2023-05-22T09:34:37.886Z,100557.72
2023-05-22T09:37:23.762Z,100544.03
2023-05-22T09:40:12.036Z,100558.09
2023-05-22T09:42:57.824Z,100557.66
2023-05-22T09:45:43.798Z,100562.81
2023-05-22T09:48:36.046Z,100539.94
2023-05-22T09:51:23.912Z,100557.66
2023-05-22T09:54:12.221Z,100551.69
2023-05-22T09:56:59.352Z,100530.03
2023-05-22T09:59:53.994Z,100540.81
2023-05-22T10:02:42.865Z,100536.88
2023-05-22T10:05:31.490Z,100541.16
2023-05-22T10:08:26.319Z,100543.69
2023-05-22T10:11:12.965Z,100532.53
2023-05-22T10:14:00.798Z,100539.78
2023-05-22T10:16:47.407Z,100531.34
2023-05-22T10:19:33.754Z,100514.50
2023-05-22T10:22:22.556Z,100539.69
2023-05-22T10:25:10.783Z,100541.69
2023-05-22T10:27:57.755Z,100534.06
2023-05-22T10:31:12.053Z,100523.31
2023-05-22T10:34:40.674Z,100512.59
2023-05-22T10:37:41.412Z,100514.56
2023-05-22T10:40:32.681Z,100516.63
2023-05-22T10:43:18.494Z,100479.78
2023-05-22T10:46:06.490Z,100493.41
2023-05-22T10:48:54.675Z,100497.41
2023-05-22T10:51:40.513Z,100502.19
2023-05-22T10:54:59.805Z,100495.44
2023-05-22T10:57:45.809Z,100498.22
2023-05-22T11:00:31.712Z,100500.16
2023-05-22T11:03:21.323Z,100494.91
2023-05-22T11:06:07.891Z,100492.13
2023-05-22T11:08:55.851Z,100482.53
2023-05-22T11:11:41.772Z,100489.72
2023-05-22T11:14:27.862Z,100466.03
2023-05-22T11:17:14.494Z,100496.00
2023-05-22T11:20:01.818Z,100479.16
2023-05-22T11:22:55.989Z,100487.53
2023-05-22T11:25:42.128Z,100451.47
2023-05-22T11:28:28.002Z,100475.94
2023-05-22T11:31:14.336Z,100476.81
2023-05-22T11:34:00.423Z,100479.94
2023-05-22T11:36:47.652Z,100477.13
2023-05-22T11:39:33.337Z,100469.47
2023-05-22T11:42:19.972Z,100466.22
2023-05-22T11:45:06.035Z,100461.84
2023-05-22T11:47:52.078Z,100465.84
2023-05-22T11:50:42.391Z,100467.47
2023-05-22T11:53:31.291Z,100467.88
2023-05-22T11:56:20.274Z,100449.78
2023-05-22T11:59:06.304Z,100435.31
2023-05-22T12:01:52.190Z,100458.13
2023-05-22T12:04:38.208Z,100470.53
2023-05-22T12:07:25.949Z,100450.13
2023-05-22T12:10:14.327Z,100448.94
2023-05-22T12:13:00.295Z,100446.19
2023-05-22T12:15:46.199Z,100417.78
2023-05-22T12:18:37.675Z,100441.06
2023-05-22T12:21:23.878Z,100422.69
2023-05-22T12:24:10.098Z,100451.09
2023-05-22T12:26:56.694Z,100438.28
2023-05-22T12:29:42.996Z,100429.84
2023-05-22T12:32:29.687Z,100424.63
2023-05-22T12:35:16.920Z,100439.03
2023-05-22T12:38:03.151Z,100417.78
2023-05-22T12:40:49.868Z,100427.84
2023-05-22T12:43:35.803Z,100420.97
2023-05-22T12:46:22.385Z,100420.53
2023-05-22T12:49:08.610Z,100422.09
2023-05-22T12:51:54.863Z,100417.75
2023-05-22T12:54:40.883Z,100409.41
2023-05-22T12:57:27.033Z,100407.03
2023-05-22T13:00:14.002Z,100419.41
2023-05-22T13:03:00.599Z,100409.75
2023-05-22T13:05:47.030Z,100392.59
2023-05-22T13:08:32.746Z,100414.63
2023-05-22T13:11:20.092Z,100411.81
2023-05-22T13:14:06.067Z,100394.19
2023-05-22T13:16:51.939Z,100404.25
2023-05-22T13:19:38.236Z,100393.41
2023-05-22T13:22:25.018Z,100402.16
2023-05-22T13:25:11.493Z,100388.88
2023-05-22T13:27:58.669Z,100381.72
2023-05-22T13:30:44.918Z,100395.66
2023-05-22T13:33:31.708Z,100386.91
2023-05-22T13:36:18.060Z,100342.75
2023-05-22T13:39:04.001Z,100364.09
2023-05-22T13:41:52.113Z,100383.72
2023-05-22T13:44:37.893Z,100351.28
2023-05-22T13:47:23.906Z,100375.25
2023-05-22T13:50:10.485Z,100376.84
2023-05-22T13:52:56.662Z,100358.41
2023-05-22T13:55:42.462Z,100372.41
2023-05-22T13:58:28.331Z,100342.38
2023-05-22T14:01:14.114Z,100383.34
2023-05-22T14:04:00.153Z,100350.16
2023-05-22T14:06:46.554Z,100368.94
2023-05-22T14:09:32.378Z,100368.16
2023-05-22T14:12:18.140Z,100366.91
2023-05-22T14:15:03.596Z,100367.25
2023-05-22T14:17:50.733Z,100358.81
2023-05-22T14:20:36.534Z,100365.97
2023-05-22T14:23:22.796Z,100361.94
2023-05-22T14:26:09.410Z,100364.31
2023-05-22T14:28:55.400Z,100358.41
2023-05-22T14:31:51.272Z,100318.88
2023-05-22T14:34:37.810Z,100335.63
2023-05-22T14:37:24.470Z,100340.78
2023-05-22T14:40:10.969Z,100351.28
2023-05-22T14:42:56.891Z,100341.28
2023-05-22T14:45:43.603Z,100339.25
2023-05-22T14:48:29.431Z,100338.38
2023-05-22T14:51:15.700Z,100314.44
2023-05-22T14:54:01.652Z,100344.50
2023-05-22T14:56:47.371Z,100329.63
2023-05-22T14:59:33.873Z,100343.22
2023-05-22T15:02:20.000Z,100336.44
2023-05-22T15:05:07.278Z,100309.25
2023-05-22T15:07:53.637Z,100328.84
2023-05-22T15:10:39.184Z,100319.28
2023-05-22T15:13:25.266Z,100324.03
2023-05-22T15:16:10.989Z,100321.19
2023-05-22T15:18:56.937Z,100330.34
2023-05-22T15:21:42.894Z,100314.81
2023-05-22T15:24:30.917Z,100321.19
2023-05-22T15:27:17.436Z,100290.41
2023-05-22T15:30:04.478Z,100320.00
2023-05-22T15:32:52.456Z,100287.19
2023-05-22T15:35:38.930Z,100312.00
2023-05-22T15:38:24.840Z,100296.75
2023-05-22T15:41:10.702Z,100294.72
2023-05-22T15:43:56.689Z,100297.50
2023-05-22T15:46:42.471Z,100304.34
2023-05-22T15:49:30.932Z,100295.16
2023-05-22T15:52:17.976Z,100288.28
2023-05-22T15:55:04.329Z,100276.25
2023-05-22T15:57:50.588Z,100282.66
2023-05-22T16:00:38.755Z,100289.47
2023-05-22T16:03:25.278Z,100283.91
2023-05-22T16:06:11.429Z,100270.31
2023-05-22T16:08:57.222Z,100280.69
2023-05-22T16:11:42.831Z,100264.69
2023-05-22T16:14:29.651Z,100267.16
2023-05-22T16:17:15.626Z,100280.75
2023-05-22T16:20:01.798Z,100229.13
2023-05-22T16:22:49.197Z,100269.94
2023-05-22T16:25:35.439Z,100226.16
2023-05-22T16:28:21.402Z,100269.06
2023-05-22T16:31:07.715Z,100271.44
2023-05-22T16:33:53.693Z,100246.19
2023-05-22T16:36:39.785Z,100268.28
2023-05-22T16:39:26.653Z,100275.84
2023-05-22T16:42:13.021Z,100264.25
2023-05-22T16:44:58.902Z,100266.13
2023-05-22T16:47:44.646Z,100276.56
2023-05-22T16:50:30.793Z,100239.59
2023-05-22T16:53:17.200Z,100269.22
2023-05-22T16:56:04.834Z,100284.38
2023-05-22T16:58:50.576Z,100244.34
2023-05-22T17:01:36.160Z,100265.97
2023-05-22T17:21:09.262Z,100274.19
2023-05-22T17:23:55.263Z,100263.38
2023-05-22T17:26:41.048Z,100220.88
2023-05-22T17:29:28.186Z,100267.72
2023-05-22T17:32:14.499Z,100269.25
2023-05-22T17:35:02.016Z,100266.41
2023-05-22T17:37:48.212Z,100219.47
2023-05-22T17:40:43.746Z,100263.13
2023-05-22T17:43:35.046Z,100260.25
2023-05-22T17:46:21.537Z,100257.03
2023-05-22T17:49:07.206Z,100238.78
2023-05-22T17:51:53.024Z,100234.00
2023-05-22T17:54:38.957Z,100273.16
2023-05-22T17:57:25.980Z,100229.84
2023-05-22T18:00:33.066Z,100268.19
2023-05-22T18:03:22.842Z,100256.13
2023-05-22T18:06:08.569Z,100223.13
2023-05-22T18:08:55.231Z,100250.63
2023-05-22T18:11:51.944Z,100251.75
2023-05-22T18:14:58.368Z,100261.72
2023-05-22T18:17:43.976Z,100237.06
2023-05-22T18:20:29.814Z,100259.78
2023-05-22T18:27:03.565Z,100238.59
2023-05-22T18:29:50.515Z,100256.94
2023-05-22T18:32:37.380Z,100258.44
2023-05-22T18:35:23.475Z,100261.88
2023-05-22T18:38:09.235Z,100260.59
2023-05-22T18:40:56.520Z,100234.41
2023-05-22T18:43:43.318Z,100262.69
2023-05-22T18:46:29.280Z,100270.91
2023-05-22T18:49:15.207Z,100260.75
2023-05-22T18:52:00.714Z,100268.16
2023-05-22T18:54:46.877Z,100263.66
2023-05-22T18:57:32.902Z,100255.84
2023-05-22T19:00:19.017Z,100268.13
2023-05-22T19:03:06.130Z,100253.97
2023-05-22T19:05:52.628Z,100243.66
2023-05-22T19:08:38.620Z,100264.47
2023-05-22T19:11:24.513Z,100273.09
2023-05-22T19:14:09.965Z,100243.56
2023-05-22T19:16:55.833Z,100266.44
2023-05-22T19:19:41.867Z,100224.47
2023-05-22T19:22:28.122Z,100230.81
2023-05-22T19:25:13.706Z,100280.09
2023-05-22T19:28:00.394Z,100267.50
2023-05-22T19:30:46.445Z,100225.63
2023-05-22T19:33:33.052Z,100273.41
2023-05-22T19:36:18.935Z,100270.63
2023-05-22T19:39:04.767Z,100248.00
2023-05-22T19:41:52.504Z,100274.31
2023-05-22T19:44:39.006Z,100262.22
2023-05-22T19:47:24.971Z,100274.59
2023-05-22T19:50:11.806Z,100259.19
2023-05-22T19:52:58.679Z,100229.84
2023-05-22T19:55:44.827Z,100260.19
2023-05-22T19:58:31.024Z,100245.97
2023-05-22T20:01:17.571Z,100244.97
2023-05-22T20:04:03.813Z,100250.53
2023-05-22T20:06:50.899Z,100252.31
2023-05-22T20:09:36.790Z,100244.09
2023-05-22T20:12:22.593Z,100210.38
2023-05-22T20:15:10.466Z,100251.94
2023-05-22T20:17:58.103Z,100249.97
2023-05-22T20:20:43.620Z,100252.03
2023-05-22T20:23:29.480Z,100249.00
2023-05-22T20:26:15.670Z,100242.00
2023-05-22T20:29:01.817Z,100248.44
2023-05-22T20:31:48.286Z,100238.91
2023-05-22T20:34:35.442Z,100235.56
2023-05-22T20:37:23.905Z,100241.81
2023-05-22T20:40:10.340Z,100242.84
2023-05-22T20:42:57.083Z,100230.59
2023-05-22T20:45:45.993Z,100205.91
2023-05-22T20:48:32.017Z,100234.00
2023-05-22T20:51:20.489Z,100248.75
2023-05-22T20:54:06.260Z,100227.63
2023-05-22T20:56:52.811Z,100210.53
2023-05-22T20:59:38.615Z,100200.69
2023-05-22T21:02:24.411Z,100222.44
2023-05-22T21:05:10.427Z,100246.28
2023-05-22T21:07:56.292Z,100213.50
2023-05-22T21:10:41.894Z,100238.97
2023-05-22T21:13:27.987Z,100244.28
2023-05-22T21:16:13.461Z,100254.59
2023-05-22T21:18:59.610Z,100229.66
2023-05-22T21:21:45.923Z,100248.44
2023-05-22T21:24:32.702Z,100232.09
2023-05-22T21:27:18.480Z,100234.25
2023-05-22T21:30:04.750Z,100242.19
2023-05-22T21:32:50.407Z,100231.47
2023-05-22T21:35:37.163Z,100231.38
2023-05-22T21:38:22.963Z,100228.78
2023-05-22T21:41:08.783Z,100241.38
2023-05-22T21:43:54.421Z,100226.97
2023-05-22T21:46:40.414Z,100241.88
2023-05-22T21:49:26.511Z,100223.59
2023-05-22T21:52:12.498Z,100214.06
2023-05-22T21:54:58.058Z,100226.00
2023-05-22T21:57:45.616Z,100222.72
2023-05-22T22:00:31.560Z,100224.13
2023-05-22T22:03:17.631Z,100217.19
2023-05-22T22:06:04.106Z,100240.94
2023-05-22T22:08:49.876Z,100230.72
2023-05-22T22:11:35.760Z,100208.56
2023-05-22T22:14:21.658Z,100241.25
2023-05-22T22:17:07.814Z,100234.59
2023-05-22T22:19:56.922Z,100227.81
2023-05-22T22:22:42.960Z,100222.97
2023-05-22T22:25:28.830Z,100181.63
2023-05-22T22:28:15.013Z,100162.06
2023-05-22T22:31:01.524Z,100210.31
2023-05-22T22:33:47.141Z,100220.59
2023-05-22T22:36:34.073Z,100216.63
2023-05-22T22:39:19.851Z,100211.78
2023-05-22T22:42:06.323Z,100216.75
2023-05-22T22:44:52.250Z,100209.84
2023-05-22T22:47:39.520Z,100219.84
2023-05-22T22:50:24.992Z,100206.63
2023-05-22T22:53:10.843Z,100213.41
2023-05-22T22:55:59.407Z,100221.59
2023-05-22T22:58:45.357Z,100213.31
2023-05-22T23:01:31.571Z,100208.72
2023-05-22T23:04:17.774Z,100189.22
2023-05-22T23:07:04.248Z,100213.16
2023-05-22T23:09:50.525Z,100212.78
2023-05-22T23:12:36.272Z,100201.66
2023-05-22T23:15:22.865Z,100175.28
2023-05-22T23:18:08.566Z,100197.28
2023-05-22T23:20:54.749Z,100166.22
2023-05-22T23:23:40.308Z,100198.59
2023-05-22T23:26:27.772Z,100186.25
2023-05-22T23:29:13.443Z,100193.47
2023-05-22T23:31:59.511Z,100186.47
2023-05-22T23:34:45.368Z,100186.69
2023-05-22T23:37:31.350Z,100186.47
2023-05-22T23:40:16.800Z,100176.44
2023-05-22T23:43:03.228Z,100172.53
2023-05-22T23:45:48.598Z,100162.75
2023-05-22T23:48:34.910Z,100162.53
2023-05-22T23:51:20.292Z,100151.34
2023-05-22T23:54:06.217Z,100164.03
2023-05-22T23:56:51.621Z,100143.75
2023-05-22T23:59:37.484Z,100155.84
